createdAt,value
2019-05-12T00:00:48.377Z,62.80
2019-05-12T00:03:20.559Z,62.90
2019-05-12T00:05:52.563Z,63.20
2019-05-12T00:08:23.724Z,63.30
2019-05-12T00:10:54.612Z,63.30
2019-05-12T00:13:27.959Z,63.50
2019-05-12T00:15:58.952Z,63.60
2019-05-12T00:18:29.980Z,63.50
2019-05-12T00:21:01.019Z,63.40
2019-05-12T00:23:32.273Z,63.10
2019-05-12T00:26:03.367Z,62.90
2019-05-12T00:28:34.316Z,62.70
2019-05-12T00:31:05.261Z,62.70
2019-05-12T00:33:38.481Z,63.00
2019-05-12T00:36:08.940Z,63.10
2019-05-12T00:38:40.015Z,63.10
2019-05-12T00:41:11.974Z,63.10
2019-05-12T00:43:44.004Z,62.80
2019-05-12T00:46:14.971Z,62.40
2019-05-12T00:48:47.792Z,62.30
2019-05-12T00:51:18.630Z,62.20
2019-05-12T00:53:49.652Z,62.00
2019-05-12T00:56:20.584Z,62.00
2019-05-12T00:58:51.629Z,62.00
2019-05-12T01:01:22.697Z,61.80
2019-05-12T01:03:53.739Z,61.60
2019-05-12T01:06:24.635Z,61.50
2019-05-12T01:08:57.774Z,61.30
2019-05-12T01:11:28.729Z,61.30
2019-05-12T01:14:00.611Z,61.60
2019-05-12T01:16:31.472Z,61.50
2019-05-12T01:19:03.419Z,61.20
2019-05-12T01:21:34.285Z,61.20
2019-05-12T01:24:05.304Z,61.20
2019-05-12T01:26:38.785Z,61.30
2019-05-12T01:29:11.135Z,61.30
2019-05-12T01:31:49.056Z,61.30
2019-05-12T01:34:20.197Z,61.30
2019-05-12T01:36:52.736Z,61.10
2019-05-12T01:39:24.035Z,60.60
2019-05-12T01:41:54.885Z,60.70
2019-05-12T01:44:25.836Z,60.60
2019-05-12T01:46:57.786Z,60.40
2019-05-12T01:49:29.019Z,60.40
2019-05-12T01:52:01.113Z,60.20
2019-05-12T01:54:32.134Z,60.20
2019-05-12T01:57:03.116Z,60.20
2019-05-12T01:59:34.054Z,60.30
2019-05-12T02:02:05.023Z,60.50
2019-05-12T02:05:01.203Z,60.60
2019-05-12T02:07:33.874Z,60.60
2019-05-12T02:10:05.624Z,60.70
2019-05-12T02:12:38.368Z,60.80
2019-05-12T02:15:10.336Z,61.00
2019-05-12T02:17:41.317Z,60.90
2019-05-12T02:20:13.653Z,60.70
2019-05-12T02:22:44.629Z,60.60
2019-05-12T02:25:18.290Z,60.70
2019-05-12T02:27:48.504Z,60.80
2019-05-12T02:30:20.487Z,61.00
2019-05-12T02:32:55.045Z,61.00
2019-05-12T02:35:24.823Z,61.00
2019-05-12T02:37:55.839Z,60.90
2019-05-12T02:40:26.970Z,60.70
2019-05-12T02:43:01.004Z,60.50
2019-05-12T02:45:35.140Z,60.30
2019-05-12T02:48:05.229Z,60.90
2019-05-12T02:50:38.226Z,60.20
2019-05-12T02:53:09.535Z,60.20
2019-05-12T02:55:44.792Z,60.30
2019-05-12T02:58:18.144Z,60.40
2019-05-12T03:00:49.688Z,60.60
2019-05-12T03:03:25.133Z,60.70
2019-05-12T03:05:58.064Z,60.60
2019-05-12T03:08:34.577Z,60.20
2019-05-12T03:11:05.941Z,60.10
2019-05-12T03:13:37.281Z,60.00
2019-05-12T03:16:08.342Z,60.00
2019-05-12T03:18:39.371Z,60.30
2019-05-12T03:21:10.555Z,60.40
2019-05-12T03:23:44.433Z,60.30
2019-05-12T03:26:15.299Z,60.20
2019-05-12T03:28:46.452Z,60.00
2019-05-12T03:31:25.309Z,59.90
2019-05-12T03:33:59.504Z,59.90
2019-05-12T03:36:32.255Z,59.90
2019-05-12T03:38:58.902Z,60.00
2019-05-12T03:41:29.900Z,60.20
2019-05-12T03:44:00.816Z,60.40
2019-05-12T03:46:35.022Z,60.30
2019-05-12T03:49:05.438Z,60.40
2019-05-12T03:51:36.649Z,60.50
2019-05-12T03:54:07.665Z,60.60
2019-05-12T03:56:39.321Z,60.50
2019-05-12T03:59:10.437Z,60.60
2019-05-12T04:01:44.826Z,60.60
2019-05-12T04:04:15.280Z,60.40
2019-05-12T04:06:46.478Z,60.40
2019-05-12T04:09:17.658Z,60.20
2019-05-12T04:11:48.712Z,60.00
2019-05-12T04:14:19.720Z,60.00
2019-05-12T04:16:50.896Z,60.10
2019-05-12T04:19:24.728Z,60.00
2019-05-12T04:21:55.796Z,59.80
2019-05-12T04:24:26.709Z,59.70
2019-05-12T04:26:57.764Z,59.80
2019-05-12T04:29:28.764Z,59.60
2019-05-12T04:31:59.894Z,59.60
2019-05-12T04:34:34.124Z,59.50
2019-05-12T04:37:04.540Z,59.50
2019-05-12T04:39:35.847Z,59.40
2019-05-12T04:42:07.001Z,59.30
2019-05-12T04:44:51.215Z,59.20
2019-05-12T04:47:35.127Z,59.30
2019-05-12T04:50:06.756Z,59.20
2019-05-12T04:52:37.797Z,59.00
2019-05-12T04:55:09.001Z,58.80
2019-05-12T04:57:39.921Z,58.70
2019-05-12T05:00:11.159Z,58.50
2019-05-12T05:02:45.262Z,58.50
2019-05-12T05:05:15.136Z,58.30
2019-05-12T05:07:46.164Z,58.20
2019-05-12T05:10:17.361Z,58.30
2019-05-12T05:12:48.351Z,58.30
2019-05-12T05:15:19.721Z,58.40
2019-05-12T05:17:50.850Z,58.40
2019-05-12T05:20:23.807Z,58.50
2019-05-12T05:22:54.595Z,58.40
2019-05-12T05:25:23.746Z,58.40
2019-05-12T05:27:54.948Z,58.30
2019-05-12T05:30:26.148Z,58.10
2019-05-12T05:32:57.159Z,58.00
2019-05-12T05:35:28.989Z,57.90
2019-05-12T05:38:00.878Z,57.80
2019-05-12T05:40:32.019Z,57.30
2019-05-12T05:43:12.221Z,57.20
2019-05-12T05:45:36.810Z,57.20
2019-05-12T05:48:10.134Z,57.00
2019-05-12T05:50:40.798Z,56.70
2019-05-12T05:53:17.416Z,56.30
2019-05-12T05:55:50.388Z,56.00
2019-05-12T05:58:19.738Z,55.80
2019-05-12T06:00:54.686Z,55.80
2019-05-12T06:03:27.794Z,55.30
2019-05-12T06:06:01.437Z,54.60
2019-05-12T06:08:30.439Z,54.40
2019-05-12T06:11:01.478Z,54.10
2019-05-12T06:13:34.572Z,53.80
2019-05-12T06:16:05.500Z,53.50
2019-05-12T06:18:36.678Z,53.00
2019-05-12T06:21:07.735Z,52.70
2019-05-12T06:23:39.285Z,52.70
2019-05-12T06:26:10.385Z,52.80
2019-05-12T06:28:43.777Z,52.10
2019-05-12T06:31:18.802Z,52.50
2019-05-12T06:33:46.999Z,52.70
2019-05-12T06:36:21.931Z,52.00
2019-05-12T06:38:51.016Z,51.90
2019-05-12T06:41:25.398Z,51.00
2019-05-12T06:43:54.945Z,50.80
2019-05-12T06:46:26.079Z,50.40
2019-05-12T06:49:00.879Z,50.80
2019-05-12T06:51:30.205Z,50.30
2019-05-12T06:54:07.299Z,50.20
2019-05-12T06:56:34.333Z,50.30
2019-05-12T06:59:09.738Z,50.00
2019-05-12T07:01:38.579Z,49.20
2019-05-12T07:04:10.281Z,48.90
2019-05-12T07:06:43.942Z,48.70
2019-05-12T07:09:16.229Z,49.40
2019-05-12T07:11:53.354Z,49.50
2019-05-12T07:14:22.785Z,49.60
2019-05-12T07:17:01.579Z,49.70
2019-05-12T07:19:29.807Z,49.70
2019-05-12T07:22:03.409Z,49.90
2019-05-12T07:24:34.635Z,50.00
2019-05-12T07:27:09.122Z,50.00
2019-05-12T07:29:38.263Z,49.40
2019-05-12T07:32:16.522Z,48.20
2019-05-12T07:34:43.749Z,47.60
2019-05-12T07:37:15.878Z,46.30
2019-05-12T07:39:49.353Z,46.70
2019-05-12T07:42:22.712Z,45.20
2019-05-12T07:44:58.003Z,45.70
2019-05-12T07:47:29.414Z,45.70
2019-05-12T07:50:00.353Z,44.80
2019-05-12T07:52:33.614Z,45.10
2019-05-12T07:55:04.416Z,45.30
2019-05-12T07:57:50.700Z,45.30
2019-05-12T08:00:11.392Z,45.00
2019-05-12T08:02:43.901Z,44.20
2019-05-12T08:05:19.667Z,45.00
2019-05-12T08:07:50.346Z,44.30
2019-05-12T08:10:23.315Z,45.20
2019-05-12T08:12:59.391Z,44.90
2019-05-12T08:15:26.805Z,45.20
2019-05-12T08:17:59.689Z,44.90
2019-05-12T08:20:31.017Z,44.50
2019-05-12T08:23:10.440Z,44.80
2019-05-12T08:26:11.429Z,45.70
2019-05-12T08:28:40.001Z,44.70
2019-05-12T08:31:07.519Z,44.90
2019-05-12T08:33:43.449Z,44.60
2019-05-12T08:36:16.292Z,45.10
2019-05-12T08:38:46.484Z,45.50
2019-05-12T08:41:17.462Z,45.40
2019-05-12T08:44:17.322Z,45.50
2019-05-12T08:47:17.669Z,45.10
2019-05-12T08:50:23.216Z,45.50
2019-05-12T08:53:28.598Z,44.70
2019-05-12T08:56:23.319Z,44.60
2019-05-12T08:58:54.419Z,44.90
2019-05-12T09:01:30.467Z,45.20
2019-05-12T09:04:00.249Z,45.60
2019-05-12T09:06:31.357Z,45.40
2019-05-12T09:09:04.594Z,45.80
2019-05-12T09:11:35.830Z,46.20
2019-05-12T09:14:07.044Z,46.20
2019-05-12T09:16:38.474Z,46.60
2019-05-12T09:19:18.196Z,46.70
2019-05-12T09:21:44.254Z,46.90
2019-05-12T09:24:21.722Z,47.10
2019-05-12T09:26:48.178Z,46.70
2019-05-12T09:29:19.459Z,46.50
2019-05-12T09:31:50.724Z,45.80
2019-05-12T09:34:23.493Z,45.80
2019-05-12T09:36:59.569Z,45.50
2019-05-12T09:39:27.313Z,44.50
2019-05-12T09:41:58.554Z,44.50
2019-05-12T09:44:30.606Z,44.50
2019-05-12T09:47:03.937Z,44.80
2019-05-12T09:49:39.405Z,44.10
2019-05-12T09:52:13.947Z,44.30
2019-05-12T09:54:41.635Z,44.60
2019-05-12T09:57:13.702Z,44.30
2019-05-12T09:59:54.116Z,44.40
2019-05-12T10:02:20.576Z,44.20
2019-05-12T10:04:56.383Z,44.20
2019-05-12T10:07:24.243Z,44.00
2019-05-12T10:09:58.973Z,44.30
2019-05-12T10:12:29.837Z,44.50
2019-05-12T10:15:01.453Z,44.70
2019-05-12T10:17:33.977Z,44.70
2019-05-12T10:20:06.095Z,44.20
2019-05-12T10:22:40.194Z,44.30
2019-05-12T10:25:18.075Z,44.60
2019-05-12T10:30:57.082Z,45.20
2019-05-12T10:33:28.324Z,44.90
2019-05-12T10:36:04.177Z,45.40
2019-05-12T10:38:34.397Z,45.80
2019-05-12T10:41:06.561Z,44.80
2019-05-12T10:43:39.108Z,44.30
2019-05-12T10:46:10.162Z,44.70
2019-05-12T10:48:44.146Z,44.80
2019-05-12T10:51:14.694Z,43.40
2019-05-12T10:53:48.690Z,43.40
2019-05-12T10:56:19.723Z,43.60
2019-05-12T10:58:50.822Z,44.00
2019-05-12T11:01:24.075Z,44.40
2019-05-12T11:03:54.701Z,44.50
2019-05-12T11:06:25.827Z,44.10
2019-05-12T11:08:56.985Z,44.10
2019-05-12T11:11:32.893Z,44.10
2019-05-12T11:14:00.574Z,44.60
2019-05-12T11:16:32.972Z,45.30
2019-05-12T11:19:06.370Z,44.60
2019-05-12T11:21:36.658Z,44.40
2019-05-12T11:24:08.407Z,44.80
2019-05-12T11:26:39.434Z,45.10
2019-05-12T11:29:10.498Z,45.10
2019-05-12T11:31:43.949Z,45.10
2019-05-12T11:34:14.045Z,45.20
2019-05-12T11:36:44.926Z,45.80
2019-05-12T11:39:15.928Z,45.80
2019-05-12T11:41:46.871Z,45.40
2019-05-12T11:44:17.847Z,45.70
2019-05-12T11:46:49.040Z,45.40
2019-05-12T11:49:21.661Z,44.20
2019-05-12T11:51:54.252Z,45.20
2019-05-12T11:54:27.998Z,44.70
2019-05-12T11:56:58.849Z,45.50
2019-05-12T11:59:30.356Z,45.40
2019-05-12T12:02:02.035Z,44.20
2019-05-12T12:04:49.113Z,43.50
2019-05-12T12:07:20.312Z,42.20
2019-05-12T12:09:56.126Z,42.10
2019-05-12T12:12:26.126Z,40.70
2019-05-12T12:15:30.252Z,39.40
2019-05-12T12:18:06.055Z,41.20
2019-05-12T12:20:34.016Z,40.20
2019-05-12T12:23:09.008Z,40.00
2019-05-12T12:25:38.085Z,40.70
2019-05-12T12:28:13.486Z,37.30
2019-05-12T12:30:47.415Z,37.40
2019-05-12T12:33:17.677Z,38.80
2019-05-12T12:35:50.588Z,38.00
2019-05-12T12:38:21.933Z,39.00
2019-05-12T12:40:53.673Z,38.20
2019-05-12T12:43:25.016Z,38.40
2019-05-12T12:46:10.810Z,37.70
2019-05-12T12:48:39.737Z,39.50
2019-05-12T12:51:10.840Z,40.00
2019-05-12T12:53:43.780Z,39.40
2019-05-12T12:56:16.124Z,39.10
2019-05-12T12:58:48.055Z,40.70
2019-05-12T13:01:28.618Z,42.40
2019-05-12T13:04:04.129Z,41.90
2019-05-12T13:06:31.339Z,40.00
2019-05-12T13:09:07.654Z,40.90
2019-05-12T13:11:36.284Z,41.70
2019-05-12T13:14:08.122Z,40.80
2019-05-12T13:16:39.531Z,40.70
2019-05-12T13:19:17.100Z,41.00
2019-05-12T13:21:48.489Z,42.40
2019-05-12T13:24:20.329Z,42.00
2019-05-12T13:26:53.918Z,43.60
2019-05-12T13:29:28.289Z,43.70
2019-05-12T13:31:57.895Z,43.30
2019-05-12T13:34:36.614Z,44.20
2019-05-12T13:37:03.435Z,43.80
2019-05-12T13:39:36.359Z,43.10
2019-05-12T13:42:10.215Z,43.00
2019-05-12T13:44:40.960Z,42.90
2019-05-12T13:47:13.975Z,42.40
2019-05-12T13:49:47.494Z,42.40
2019-05-12T13:52:20.313Z,41.40
2019-05-12T13:54:55.243Z,42.60
2019-05-12T14:00:25.874Z,44.40
2019-05-12T14:03:03.287Z,44.60
2019-05-12T14:05:29.210Z,44.60
2019-05-12T14:08:00.073Z,44.60
2019-05-12T14:10:33.222Z,44.60
2019-05-12T14:13:03.633Z,44.60
2019-05-12T14:15:34.616Z,46.00
2019-05-12T14:18:10.306Z,47.10
2019-05-12T14:20:38.166Z,48.00
2019-05-12T14:23:11.305Z,47.90
2019-05-12T14:25:43.773Z,47.60
2019-05-12T14:28:16.657Z,46.50
2019-05-12T14:30:51.489Z,47.20
2019-05-12T14:33:19.965Z,46.60
2019-05-12T14:35:50.729Z,46.70
2019-05-12T14:38:27.341Z,47.60
2019-05-12T14:40:54.260Z,48.20
2019-05-12T14:43:25.132Z,48.20
2019-05-12T14:46:00.288Z,47.90
2019-05-12T14:48:28.444Z,48.50
2019-05-12T14:50:59.243Z,47.90
2019-05-12T14:53:32.870Z,48.10
2019-05-12T14:56:03.887Z,48.30
2019-05-12T14:58:34.990Z,48.60
2019-05-12T15:01:06.210Z,48.00
2019-05-12T15:03:42.374Z,47.90
2019-05-12T15:06:19.520Z,48.10
2019-05-12T15:08:47.109Z,47.50
2019-05-12T15:11:18.036Z,46.60
2019-05-12T15:13:49.027Z,47.50
2019-05-12T15:16:19.827Z,47.70
2019-05-12T15:18:53.973Z,48.20
2019-05-12T15:21:27.417Z,48.30
2019-05-12T15:23:58.218Z,48.30
2019-05-12T15:26:30.096Z,48.80
2019-05-12T15:29:05.356Z,48.80
2019-05-12T15:31:34.518Z,48.80
2019-05-12T15:34:06.259Z,49.00
2019-05-12T15:36:43.640Z,49.10
2019-05-12T15:39:13.948Z,49.50
2019-05-12T15:41:45.929Z,49.80
2019-05-12T15:44:16.914Z,50.10
2019-05-12T15:46:48.957Z,50.60
2019-05-12T15:49:21.362Z,51.10
2019-05-12T15:51:57.468Z,51.30
2019-05-12T15:54:45.712Z,51.30
2019-05-12T15:57:13.641Z,52.20
2019-05-12T15:59:46.035Z,52.50
2019-05-12T16:02:17.908Z,52.90
2019-05-12T16:04:50.506Z,52.90
2019-05-12T16:07:35.682Z,53.00
2019-05-12T16:10:04.423Z,53.20
2019-05-12T16:12:37.466Z,52.90
2019-05-12T16:15:11.406Z,52.90
2019-05-12T16:17:44.472Z,52.80
2019-05-12T16:20:16.390Z,52.60
2019-05-12T16:22:48.307Z,52.60
2019-05-12T16:25:20.897Z,52.50
2019-05-12T16:27:53.613Z,52.80
2019-05-12T16:30:26.028Z,52.90
2019-05-12T16:32:58.629Z,52.80
2019-05-12T16:35:31.724Z,52.70
2019-05-12T16:38:05.883Z,52.60
2019-05-12T16:40:39.438Z,52.60
2019-05-12T16:43:23.844Z,52.60
2019-05-12T16:45:55.662Z,52.20
2019-05-12T16:48:42.225Z,52.10
2019-05-12T16:51:14.036Z,51.60
2019-05-12T16:53:45.854Z,51.20
2019-05-12T16:56:20.035Z,50.90
2019-05-12T16:58:51.001Z,50.90
2019-05-12T17:01:25.975Z,51.00
2019-05-12T17:03:55.620Z,51.30
2019-05-12T17:06:28.873Z,51.40
2019-05-12T17:09:03.487Z,51.70
2019-05-12T17:11:37.431Z,51.60
2019-05-12T17:14:08.340Z,51.90
2019-05-12T17:16:42.389Z,52.50
2019-05-12T17:19:15.248Z,52.20
2019-05-12T17:21:49.461Z,52.50
2019-05-12T17:24:19.298Z,52.90
2019-05-12T17:26:52.190Z,52.90
2019-05-12T17:29:25.046Z,53.30
2019-05-12T17:31:56.921Z,53.50
2019-05-12T17:34:27.868Z,53.50
2019-05-12T17:37:00.557Z,53.60
2019-05-12T17:39:35.768Z,53.80
2019-05-12T17:42:05.319Z,54.20
2019-05-12T17:44:38.891Z,54.10
2019-05-12T17:47:12.903Z,54.10
2019-05-12T17:49:43.607Z,54.00
2019-05-12T17:52:18.185Z,54.00
2019-05-12T17:54:47.083Z,54.40
2019-05-12T17:57:19.860Z,54.40
2019-05-12T17:59:50.462Z,54.30
2019-05-12T18:02:23.476Z,54.30
2019-05-12T18:04:53.993Z,53.70
2019-05-12T18:07:24.830Z,53.50
2019-05-12T18:09:56.735Z,53.50
2019-05-12T18:12:38.241Z,53.30
2019-05-12T18:15:00.653Z,53.10
2019-05-12T18:17:33.761Z,53.10
2019-05-12T18:20:04.292Z,52.70
2019-05-12T18:22:39.264Z,52.70
2019-05-12T18:25:09.081Z,52.80
2019-05-12T18:27:44.324Z,52.80
2019-05-12T18:30:16.595Z,52.90
2019-05-12T18:32:45.307Z,53.20
2019-05-12T18:35:16.204Z,53.30
2019-05-12T18:37:47.303Z,53.30
2019-05-12T18:40:18.174Z,53.30
2019-05-12T18:42:49.297Z,53.50
2019-05-12T18:45:20.403Z,53.50
2019-05-12T18:47:53.698Z,53.30
2019-05-12T18:50:27.099Z,53.10
2019-05-12T18:52:56.557Z,52.90
2019-05-12T18:55:29.423Z,52.80
2019-05-12T18:58:31.162Z,52.80
2019-05-12T19:01:03.402Z,52.90
2019-05-12T19:03:47.163Z,52.90
2019-05-12T19:06:07.818Z,53.10
2019-05-12T19:08:38.838Z,53.20
2019-05-12T19:11:20.080Z,53.10
2019-05-12T19:13:51.383Z,53.00
2019-05-12T19:16:29.041Z,53.10
2019-05-12T19:19:00.617Z,53.10
2019-05-12T19:21:32.436Z,53.10
2019-05-12T19:24:03.672Z,53.20
2019-05-12T19:26:38.452Z,53.40
2019-05-12T19:29:08.298Z,53.70
2019-05-12T19:31:45.278Z,53.70
2019-05-12T19:34:22.525Z,53.90
2019-05-12T19:36:49.739Z,53.80
2019-05-12T19:39:25.096Z,53.70
2019-05-12T19:41:54.906Z,53.60
2019-05-12T19:44:30.706Z,53.50
2019-05-12T19:46:59.647Z,53.40
2019-05-12T19:49:46.219Z,53.40
2019-05-12T19:52:10.031Z,53.20
2019-05-12T19:54:41.293Z,53.20
2019-05-12T19:57:21.610Z,53.00
2019-05-12T19:59:50.717Z,53.00
2019-05-12T20:02:18.328Z,53.00
2019-05-12T20:04:51.876Z,53.10
2019-05-12T20:07:23.348Z,53.10
2019-05-12T20:10:00.100Z,53.20
2019-05-12T20:12:27.398Z,53.20
2019-05-12T20:14:59.234Z,53.30
2019-05-12T20:17:30.608Z,53.40
2019-05-12T20:20:01.481Z,53.50
2019-05-12T20:22:33.560Z,53.70
2019-05-12T20:25:04.656Z,53.90
2019-05-12T20:27:35.557Z,53.90
2019-05-12T20:30:18.768Z,53.90
2019-05-12T20:32:40.395Z,54.00
2019-05-12T20:35:11.488Z,54.00
2019-05-12T20:37:44.281Z,54.20
2019-05-12T20:40:15.737Z,54.20
2019-05-12T20:43:05.584Z,54.50
2019-05-12T20:45:22.557Z,54.60
2019-05-12T20:47:53.185Z,54.80
2019-05-12T20:50:32.301Z,55.10
2019-05-12T20:52:59.073Z,55.20
2019-05-12T20:55:29.989Z,55.40
2019-05-12T20:58:03.892Z,55.60
2019-05-12T21:00:38.995Z,56.00
2019-05-12T21:03:09.162Z,56.20
2019-05-12T21:05:39.955Z,57.00
2019-05-12T21:08:11.837Z,56.40
2019-05-12T21:10:44.111Z,56.60
2019-05-12T21:13:20.523Z,56.70
2019-05-12T21:15:49.337Z,56.90
2019-05-12T21:18:23.581Z,57.00
2019-05-12T21:20:54.973Z,57.30
2019-05-12T21:23:26.737Z,57.20
2019-05-12T21:25:58.515Z,57.30
2019-05-12T21:28:30.296Z,57.40
2019-05-12T21:31:03.680Z,57.50
2019-05-12T21:33:39.936Z,57.40
2019-05-12T21:36:08.456Z,57.30
2019-05-12T21:38:59.449Z,57.50
2019-05-12T21:41:30.175Z,57.40
2019-05-12T21:44:06.609Z,57.40
2019-05-12T21:46:38.273Z,57.30
2019-05-12T21:49:11.890Z,57.40
2019-05-12T21:51:44.650Z,57.30
2019-05-12T21:54:16.296Z,57.30
2019-05-12T21:56:49.477Z,57.40
2019-05-12T21:59:23.231Z,57.40
2019-05-12T22:01:54.457Z,57.40
2019-05-12T22:04:26.256Z,57.40
2019-05-12T22:06:58.933Z,57.40
2019-05-12T22:09:34.841Z,57.40
2019-05-12T22:12:03.768Z,57.50
2019-05-12T22:14:40.621Z,57.70
2019-05-12T22:17:08.977Z,57.80
2019-05-12T22:19:39.928Z,57.80
2019-05-12T22:22:10.883Z,57.70
2019-05-12T22:24:44.020Z,57.60
2019-05-12T22:27:21.800Z,57.70
2019-05-12T22:29:46.590Z,57.80
2019-05-12T22:32:19.122Z,57.80
2019-05-12T22:34:49.953Z,57.60
2019-05-12T22:37:20.926Z,57.50
2019-05-12T22:39:53.487Z,57.30
2019-05-12T22:42:24.493Z,57.10
2019-05-12T22:45:01.476Z,56.90
2019-05-12T22:47:27.823Z,56.70
2019-05-12T22:49:58.713Z,56.60
2019-05-12T22:52:29.630Z,56.50
2019-05-12T22:55:00.464Z,56.50
2019-05-12T22:57:38.251Z,56.50
2019-05-12T23:00:04.140Z,56.40
2019-05-12T23:02:36.591Z,55.90
2019-05-12T23:05:10.344Z,55.70
2019-05-12T23:07:40.007Z,54.50
2019-05-12T23:10:14.150Z,54.10
2019-05-12T23:12:44.681Z,53.50
2019-05-12T23:15:15.793Z,53.30
2019-05-12T23:17:49.320Z,53.00
2019-05-12T23:20:19.539Z,52.90
2019-05-12T23:22:50.487Z,52.70
2019-05-12T23:25:21.723Z,52.30
2019-05-12T23:27:54.239Z,52.20
2019-05-12T23:30:25.040Z,52.30
2019-05-12T23:32:55.873Z,52.20
2019-05-12T23:35:28.282Z,52.20
2019-05-12T23:37:59.000Z,51.90
2019-05-12T23:40:29.726Z,52.10
2019-05-12T23:43:00.580Z,52.30
2019-05-12T23:45:33.701Z,52.30
2019-05-12T23:48:04.135Z,52.40
2019-05-12T23:50:34.949Z,52.50
2019-05-12T23:53:05.729Z,52.30
2019-05-12T23:55:36.452Z,52.60
2019-05-12T23:58:07.309Z,52.70
